Time;durP1;ratioP1;P1;durP2;ratioP2;P2;SDS_P1;SDS_P2;PMS_P1;PMS_P2;Temp;Humidity;BMP_temperature;BMP_pressure;BME280_temperature;BME280_humidity;BME280_pressure;Samples;Min_cycle;Max_cycle;Signal;HPM_P1;HPM_P2
2023/06/17 00:01:05;;;;;;;4.82;4.10;;;;;;;;;;5084577;28;20196;-71
2023/06/17 00:03:31;;;;;;;6.45;4.60;;;;;;;;;;5084419;28;20369;-71
2023/06/17 00:05:58;;;;;;;5.00;4.40;;;;;;;;;;5084192;28;20221;-71
2023/06/17 00:08:24;;;;;;;4.72;4.32;;;;;;;;;;5083525;28;20227;-71
2023/06/17 00:10:50;;;;;;;4.78;4.43;;;;;;;;;;5084471;28;20206;-71
2023/06/17 00:13:19;;;;;;;6.13;4.95;;;;;;;;;;5084164;28;20200;-71
2023/06/17 00:15:47;;;;;;;5.05;4.45;;;;;;;;;;5084239;28;20198;-71
2023/06/17 00:18:14;;;;;;;4.55;4.30;;;;;;;;;;5083976;28;20207;-71
2023/06/17 00:20:40;;;;;;;4.85;4.55;;;;;;;;;;5083997;28;20195;-69
2023/06/17 00:23:08;;;;;;;5.38;4.95;;;;;;;;;;5084330;28;20211;-70
2023/06/17 00:25:34;;;;;;;5.10;4.63;;;;;;;;;;5084078;28;20271;-70
2023/06/17 00:28:00;;;;;;;4.55;4.25;;;;;;;;;;5083868;28;20594;-70
2023/06/17 00:30:26;;;;;;;4.78;4.43;;;;;;;;;;5083862;28;20234;-70
2023/06/17 00:32:54;;;;;;;4.80;4.25;;;;;;;;;;5084026;28;20495;-70
2023/06/17 00:35:21;;;;;;;4.97;4.57;;;;;;;;;;5084014;28;20258;-71
2023/06/17 00:37:47;;;;;;;4.55;4.15;;;;;;;;;;5083709;28;20197;-71
2023/06/17 00:40:13;;;;;;;4.20;4.00;;;;;;;;;;5083790;28;20200;-71
2023/06/17 00:42:40;;;;;;;4.88;4.50;;;;;;;;;;5084019;28;20204;-71
2023/06/17 00:45:07;;;;;;;4.47;4.18;;;;;;;;;;5083599;28;20216;-71
2023/06/17 00:47:33;;;;;;;4.65;4.25;;;;;;;;;;5083279;28;20203;-70
2023/06/17 00:50:02;;;;;;;5.25;4.78;;;;;;;;;;5083701;28;20250;-70
2023/06/17 00:52:28;;;;;;;4.93;4.53;;;;;;;;;;5083533;28;20273;-70
2023/06/17 00:54:55;;;;;;;4.82;4.40;;;;;;;;;;5083579;28;20193;-70
2023/06/17 00:57:21;;;;;;;5.75;4.60;;;;;;;;;;5083571;28;20411;-70
2023/06/17 00:59:47;;;;;;;6.85;5.18;;;;;;;;;;5083366;28;20196;-70
2023/06/17 01:02:13;;;;;;;5.55;5.05;;;;;;;;;;5083126;28;20419;-70
2023/06/17 01:04:42;;;;;;;5.45;4.97;;;;;;;;;;5083132;28;20569;-70
2023/06/17 01:07:16;;;;;;;5.22;4.80;;;;;;;;;;5083190;28;20208;-71
2023/06/17 01:09:44;;;;;;;7.45;4.88;;;;;;;;;;5083236;28;20361;-71
2023/06/17 01:12:12;;;;;;;5.32;4.82;;;;;;;;;;5083411;28;20390;-71
2023/06/17 01:14:40;;;;;;;5.35;4.85;;;;;;;;;;5083318;28;20381;-70
2023/06/17 01:17:12;;;;;;;5.40;4.97;;;;;;;;;;5083052;28;20203;-70
2023/06/17 01:19:38;;;;;;;5.68;5.28;;;;;;;;;;5082560;28;20189;-70
2023/06/17 01:22:06;;;;;;;6.30;5.70;;;;;;;;;;5082850;28;20203;-70
2023/06/17 01:24:35;;;;;;;5.20;4.80;;;;;;;;;;5083093;28;20196;-70
2023/06/17 01:27:02;;;;;;;6.10;5.18;;;;;;;;;;5082988;28;20196;-70
2023/06/17 01:29:30;;;;;;;5.15;4.47;;;;;;;;;;5082782;28;20500;-70
2023/06/17 01:31:57;;;;;;;5.50;5.10;;;;;;;;;;5082765;28;20203;-70
2023/06/17 01:34:29;;;;;;;5.80;5.30;;;;;;;;;;5083029;28;20203;-70
2023/06/17 01:36:57;;;;;;;5.57;5.15;;;;;;;;;;5082969;28;20196;-70
2023/06/17 01:39:24;;;;;;;9.60;5.15;;;;;;;;;;5082582;28;20372;-70
2023/06/17 01:42:06;;;;;;;5.25;4.82;;;;;;;;;;5082960;28;20207;-70
2023/06/17 01:44:33;;;;;;;6.15;4.63;;;;;;;;;;5082572;28;20196;-70
2023/06/17 01:47:00;;;;;;;6.97;4.75;;;;;;;;;;5082903;28;20203;-70
2023/06/17 01:49:26;;;;;;;5.38;4.95;;;;;;;;;;5082543;28;20203;-70
2023/06/17 01:51:52;;;;;;;5.50;5.10;;;;;;;;;;5082719;28;20196;-71
2023/06/17 01:54:18;;;;;;;5.25;4.88;;;;;;;;;;5082567;28;20197;-71
2023/06/17 01:56:45;;;;;;;8.25;5.40;;;;;;;;;;5082421;28;20500;-71
2023/06/17 01:59:12;;;;;;;5.88;5.30;;;;;;;;;;5082539;28;20291;-71
2023/06/17 02:01:39;;;;;;;5.40;4.72;;;;;;;;;;5082658;28;20199;-71
2023/06/17 02:04:05;;;;;;;5.50;4.45;;;;;;;;;;5082372;28;20203;-71
2023/06/17 02:06:31;;;;;;;5.85;5.32;;;;;;;;;;5082247;28;20216;-71
2023/06/17 02:08:58;;;;;;;5.18;4.78;;;;;;;;;;5082350;28;20212;-71
2023/06/17 02:11:25;;;;;;;5.63;5.22;;;;;;;;;;5082179;28;20404;-71
2023/06/17 02:13:51;;;;;;;5.47;5.07;;;;;;;;;;5082187;28;20419;-71
2023/06/17 02:16:19;;;;;;;7.78;4.95;;;;;;;;;;5082178;28;20238;-71
2023/06/17 02:18:47;;;;;;;5.78;5.35;;;;;;;;;;5082055;28;20271;-71
2023/06/17 02:21:13;;;;;;;6.43;5.40;;;;;;;;;;5082493;28;20196;-71
2023/06/17 02:23:39;;;;;;;5.65;5.05;;;;;;;;;;5081947;28;20254;-71
2023/06/17 02:26:06;;;;;;;6.57;5.10;;;;;;;;;;5081746;28;20273;-71
2023/06/17 02:28:32;;;;;;;9.18;5.30;;;;;;;;;;5081586;28;20216;-71
2023/06/17 02:30:58;;;;;;;6.22;5.05;;;;;;;;;;5084268;28;20234;-71
2023/06/17 02:33:26;;;;;;;6.03;5.53;;;;;;;;;;5088901;28;20208;-71
2023/06/17 02:35:52;;;;;;;6.15;5.43;;;;;;;;;;5088531;28;20200;-71
2023/06/17 02:38:18;;;;;;;5.65;5.28;;;;;;;;;;5088458;28;20235;-71
2023/06/17 02:40:45;;;;;;;5.72;5.20;;;;;;;;;;5088412;28;20204;-71
2023/06/17 02:43:11;;;;;;;7.15;5.20;;;;;;;;;;5088751;28;20224;-71
2023/06/17 02:45:37;;;;;;;6.82;5.80;;;;;;;;;;5088655;28;20216;-71
2023/06/17 02:48:04;;;;;;;6.93;6.32;;;;;;;;;;5088438;28;20371;-71
2023/06/17 02:50:31;;;;;;;7.88;6.90;;;;;;;;;;5088881;28;20203;-71
2023/06/17 02:52:58;;;;;;;7.50;5.90;;;;;;;;;;5088801;28;20196;-71
2023/06/17 02:55:25;;;;;;;6.03;5.53;;;;;;;;;;5088568;28;20200;-71
2023/06/17 02:57:51;;;;;;;8.65;5.30;;;;;;;;;;5088437;28;20196;-71
2023/06/17 03:00:18;;;;;;;7.97;5.45;;;;;;;;;;5088310;28;20208;-71
2023/06/17 03:02:44;;;;;;;13.13;5.95;;;;;;;;;;5088380;28;20197;-71
2023/06/17 03:05:10;;;;;;;6.18;5.57;;;;;;;;;;5088354;28;20196;-71
2023/06/17 03:07:40;;;;;;;6.80;5.30;;;;;;;;;;5088253;28;20234;-71
2023/06/17 03:10:06;;;;;;;6.72;5.60;;;;;;;;;;5088455;28;20223;-71
2023/06/17 03:12:33;;;;;;;6.75;6.07;;;;;;;;;;5088546;28;20203;-71
2023/06/17 03:15:00;;;;;;;6.20;5.70;;;;;;;;;;5088391;28;20216;-71
2023/06/17 03:17:27;;;;;;;6.50;5.80;;;;;;;;;;5088047;28;20424;-71
2023/06/17 03:19:53;;;;;;;5.60;5.20;;;;;;;;;;5088189;28;20196;-71
2023/06/17 03:22:20;;;;;;;5.72;5.03;;;;;;;;;;5088726;28;20360;-71
2023/06/17 03:24:47;;;;;;;4.95;4.63;;;;;;;;;;5088520;28;20257;-71
2023/06/17 03:27:13;;;;;;;8.73;5.35;;;;;;;;;;5088066;28;20256;-71
2023/06/17 03:29:40;;;;;;;6.05;5.53;;;;;;;;;;5087928;28;20234;-71
2023/06/17 03:32:07;;;;;;;8.63;5.18;;;;;;;;;;5088411;28;20208;-71
2023/06/17 03:34:33;;;;;;;5.95;5.40;;;;;;;;;;5088321;28;20651;-71
2023/06/17 03:36:59;;;;;;;5.80;5.22;;;;;;;;;;5088068;28;20420;-71
2023/06/17 03:39:25;;;;;;;6.07;5.25;;;;;;;;;;5088267;28;20228;-71
2023/06/17 03:41:53;;;;;;;6.63;5.93;;;;;;;;;;5087915;28;20391;-71
2023/06/17 03:44:19;;;;;;;8.52;5.57;;;;;;;;;;5084048;28;20197;-71
2023/06/17 03:46:45;;;;;;;7.10;6.47;;;;;;;;;;5084622;28;20209;-71
2023/06/17 03:49:12;;;;;;;6.68;6.05;;;;;;;;;;5084410;28;20204;-71
2023/06/17 03:51:38;;;;;;;9.32;7.43;;;;;;;;;;5084728;28;20204;-71
2023/06/17 03:54:04;;;;;;;7.50;6.60;;;;;;;;;;5085034;28;20196;-71
2023/06/17 03:56:30;;;;;;;10.18;7.45;;;;;;;;;;5084787;28;20512;-71
2023/06/17 03:58:58;;;;;;;8.38;6.35;;;;;;;;;;5084556;28;20487;-71
2023/06/17 04:01:24;;;;;;;8.07;6.40;;;;;;;;;;5084764;28;20425;-71
2023/06/17 04:03:51;;;;;;;8.82;7.82;;;;;;;;;;5084436;28;20253;-71
2023/06/17 04:06:17;;;;;;;9.57;7.25;;;;;;;;;;5084522;28;20411;-71
2023/06/17 04:08:44;;;;;;;7.28;6.55;;;;;;;;;;5084399;28;20354;-71
2023/06/17 04:11:10;;;;;;;7.88;6.63;;;;;;;;;;5084638;28;20196;-71
2023/06/17 04:13:36;;;;;;;7.25;6.60;;;;;;;;;;5084415;28;20236;-71
2023/06/17 04:16:04;;;;;;;7.65;6.57;;;;;;;;;;5085669;28;20196;-72
2023/06/17 04:18:30;;;;;;;8.05;6.20;;;;;;;;;;5087191;28;20196;-72
2023/06/17 04:20:57;;;;;;;7.85;6.78;;;;;;;;;;5087376;28;20201;-72
2023/06/17 04:23:23;;;;;;;12.65;7.43;;;;;;;;;;5087635;28;20527;-72
2023/06/17 04:25:50;;;;;;;7.20;6.63;;;;;;;;;;5087234;28;20220;-72
2023/06/17 04:28:17;;;;;;;8.27;6.63;;;;;;;;;;5087561;28;20216;-72
2023/06/17 04:30:45;;;;;;;7.20;6.47;;;;;;;;;;5087673;28;20496;-72
2023/06/17 04:33:14;;;;;;;8.38;6.18;;;;;;;;;;5087517;28;20224;-72
2023/06/17 04:35:41;;;;;;;6.90;5.75;;;;;;;;;;5087496;28;20197;-72
2023/06/17 04:38:08;;;;;;;6.38;5.78;;;;;;;;;;5087122;28;20196;-72
2023/06/17 04:40:36;;;;;;;6.82;6.13;;;;;;;;;;5087193;28;20196;-72
2023/06/17 04:43:03;;;;;;;7.45;6.70;;;;;;;;;;5087050;28;20203;-72
2023/06/17 04:45:30;;;;;;;6.93;6.43;;;;;;;;;;5086952;28;20233;-72
2023/06/17 04:47:56;;;;;;;7.57;6.78;;;;;;;;;;5086515;28;20196;-72
2023/06/17 04:50:24;;;;;;;11.20;8.43;;;;;;;;;;5087163;28;20200;-72
2023/06/17 04:52:51;;;;;;;10.38;7.35;;;;;;;;;;5087147;28;20508;-72
2023/06/17 04:55:18;;;;;;;7.40;6.72;;;;;;;;;;5086815;28;20205;-72
2023/06/17 04:57:45;;;;;;;10.70;6.88;;;;;;;;;;5086670;28;20260;-72
2023/06/17 05:00:12;;;;;;;7.82;7.07;;;;;;;;;;5086830;28;20200;-72
2023/06/17 05:02:38;;;;;;;10.35;6.60;;;;;;;;;;5086378;28;20204;-72
2023/06/17 05:05:05;;;;;;;8.05;7.25;;;;;;;;;;5086514;28;20207;-72
2023/06/17 05:07:33;;;;;;;8.57;7.35;;;;;;;;;;5086318;28;20220;-72
2023/06/17 05:09:59;;;;;;;9.63;7.32;;;;;;;;;;5086410;28;20508;-72
2023/06/17 05:12:25;;;;;;;11.40;6.68;;;;;;;;;;5086019;28;20231;-72
2023/06/17 05:14:52;;;;;;;6.90;6.25;;;;;;;;;;5086358;28;20196;-72
2023/06/17 05:17:18;;;;;;;7.38;6.78;;;;;;;;;;5086613;28;20560;-72
2023/06/17 05:19:44;;;;;;;10.00;7.63;;;;;;;;;;5086863;28;20373;-72
2023/06/17 05:22:11;;;;;;;7.55;6.50;;;;;;;;;;5086411;28;20199;-72
2023/06/17 05:24:38;;;;;;;8.95;7.32;;;;;;;;;;5086532;28;20197;-72
2023/06/17 05:27:05;;;;;;;10.43;7.00;;;;;;;;;;5085910;28;20228;-72
2023/06/17 05:29:31;;;;;;;9.25;6.50;;;;;;;;;;5085893;28;20211;-72
2023/06/17 05:31:57;;;;;;;7.30;6.60;;;;;;;;;;5086304;28;20207;-71
2023/06/17 05:34:23;;;;;;;7.38;6.50;;;;;;;;;;5086281;28;20536;-71
2023/06/17 05:36:50;;;;;;;12.20;7.15;;;;;;;;;;5086205;28;20385;-71
2023/06/17 05:39:16;;;;;;;11.07;6.88;;;;;;;;;;5086277;28;20196;-72
2023/06/17 05:41:44;;;;;;;7.78;7.03;;;;;;;;;;5086406;28;20359;-72
2023/06/17 05:44:10;;;;;;;8.48;7.30;;;;;;;;;;5085874;28;20449;-72
2023/06/17 05:46:36;;;;;;;7.72;7.03;;;;;;;;;;5086373;28;20217;-72
2023/06/17 05:49:03;;;;;;;7.85;6.63;;;;;;;;;;5086322;28;20496;-72
2023/06/17 05:51:29;;;;;;;11.27;7.00;;;;;;;;;;5086305;28;20196;-72
2023/06/17 05:53:55;;;;;;;9.40;6.82;;;;;;;;;;5086059;28;20200;-72
2023/06/17 05:56:21;;;;;;;8.32;6.95;;;;;;;;;;5085756;28;20192;-72
2023/06/17 05:58:49;;;;;;;7.22;6.57;;;;;;;;;;5086424;28;20200;-72
2023/06/17 06:01:15;;;;;;;7.07;6.38;;;;;;;;;;5086159;28;20231;-71
2023/06/17 06:03:42;;;;;;;10.45;7.10;;;;;;;;;;5086107;28;20231;-71
2023/06/17 06:06:08;;;;;;;10.45;6.75;;;;;;;;;;5085609;28;20196;-71
2023/06/17 06:08:34;;;;;;;9.07;7.07;;;;;;;;;;5085556;28;20200;-71
2023/06/17 06:11:01;;;;;;;9.75;7.47;;;;;;;;;;5085553;28;20451;-71
2023/06/17 06:13:28;;;;;;;12.38;7.10;;;;;;;;;;5086297;28;20197;-71
2023/06/17 06:15:55;;;;;;;7.70;6.85;;;;;;;;;;5086452;28;20395;-71
2023/06/17 06:18:22;;;;;;;12.52;6.97;;;;;;;;;;5085972;28;20204;-71
2023/06/17 06:20:48;;;;;;;8.35;6.03;;;;;;;;;;5086115;28;20551;-72
2023/06/17 06:23:14;;;;;;;7.43;6.72;;;;;;;;;;5085523;28;20197;-71
2023/06/17 06:25:41;;;;;;;6.75;6.15;;;;;;;;;;5083333;28;20499;-71
2023/06/17 06:28:07;;;;;;;6.68;5.97;;;;;;;;;;5083091;28;20414;-72
2023/06/17 06:30:34;;;;;;;8.75;6.95;;;;;;;;;;5083573;28;20197;-72
2023/06/17 06:33:01;;;;;;;9.30;5.97;;;;;;;;;;5083643;28;20196;-72
2023/06/17 06:35:27;;;;;;;8.50;6.50;;;;;;;;;;5083579;28;20196;-72
2023/06/17 06:37:55;;;;;;;7.53;6.35;;;;;;;;;;5083486;28;20176;-72
2023/06/17 06:40:23;;;;;;;8.50;7.15;;;;;;;;;;5084395;28;20203;-72
2023/06/17 06:42:49;;;;;;;9.02;8.10;;;;;;;;;;5085000;28;20468;-72
2023/06/17 06:45:16;;;;;;;6.88;6.30;;;;;;;;;;5084910;28;20280;-72
2023/06/17 06:47:42;;;;;;;9.15;8.18;;;;;;;;;;5084428;28;20224;-72
2023/06/17 06:50:10;;;;;;;9.50;6.97;;;;;;;;;;5084651;28;20204;-72
2023/06/17 06:52:36;;;;;;;8.05;6.47;;;;;;;;;;5084635;28;20185;-72
2023/06/17 06:55:03;;;;;;;10.00;6.40;;;;;;;;;;5084351;28;20239;-71
2023/06/17 06:57:29;;;;;;;7.63;6.78;;;;;;;;;;5084306;28;20193;-71
2023/06/17 06:59:55;;;;;;;9.07;6.70;;;;;;;;;;5084378;28;20204;-71
2023/06/17 07:02:21;;;;;;;8.95;7.05;;;;;;;;;;5084650;28;20200;-71
2023/06/17 07:04:48;;;;;;;8.23;5.75;;;;;;;;;;5084216;28;20239;-72
2023/06/17 07:07:15;;;;;;;8.27;6.20;;;;;;;;;;5082292;28;20595;-58
2023/06/17 07:09:42;;;;;;;7.63;6.88;;;;;;;;;;5081703;28;20200;-56
2023/06/17 07:12:08;;;;;;;6.22;5.63;;;;;;;;;;5081669;28;20203;-57
2023/06/17 07:14:35;;;;;;;7.22;6.38;;;;;;;;;;5081959;28;20235;-57
2023/06/17 07:17:01;;;;;;;6.50;5.82;;;;;;;;;;5082658;28;20201;-57
2023/06/17 07:19:27;;;;;;;7.25;6.60;;;;;;;;;;5085178;28;20204;-57
2023/06/17 07:21:54;;;;;;;10.00;6.28;;;;;;;;;;5085290;28;20481;-57
2023/06/17 07:24:22;;;;;;;11.02;5.88;;;;;;;;;;5085493;28;20267;-56
2023/06/17 07:26:48;;;;;;;7.13;5.80;;;;;;;;;;5085307;28;20220;-57
2023/06/17 07:29:14;;;;;;;9.50;6.25;;;;;;;;;;5085146;28;20196;-57
2023/06/17 07:31:41;;;;;;;7.32;6.60;;;;;;;;;;5085201;28;20242;-57
2023/06/17 07:34:07;;;;;;;7.90;5.78;;;;;;;;;;5085132;28;20242;-57
2023/06/17 07:36:33;;;;;;;8.93;6.10;;;;;;;;;;5085061;28;20242;-56
2023/06/17 07:38:59;;;;;;;7.05;5.57;;;;;;;;;;5085146;28;20197;-58
2023/06/17 07:41:27;;;;;;;9.18;6.38;;;;;;;;;;5085208;28;20235;-57
2023/06/17 07:43:53;;;;;;;7.30;5.88;;;;;;;;;;5085045;28;20440;-57
2023/06/17 07:46:19;;;;;;;5.95;5.15;;;;;;;;;;5085058;28;20373;-57
2023/06/17 07:48:46;;;;;;;6.57;5.95;;;;;;;;;;5084566;28;20254;-57
2023/06/17 07:51:12;;;;;;;6.28;5.68;;;;;;;;;;5085204;28;20197;-58
2023/06/17 07:53:38;;;;;;;6.38;5.70;;;;;;;;;;5084837;28;20196;-57
2023/06/17 07:56:05;;;;;;;8.15;5.53;;;;;;;;;;5084863;28;20406;-57
2023/06/17 07:58:33;;;;;;;9.25;5.57;;;;;;;;;;5084615;28;20523;-57
2023/06/17 08:01:00;;;;;;;10.25;5.80;;;;;;;;;;5084600;28;20196;-57
2023/06/17 08:03:26;;;;;;;7.47;5.75;;;;;;;;;;5084667;28;20197;-56
2023/06/17 08:05:53;;;;;;;9.13;5.78;;;;;;;;;;5084896;28;20203;-57
2023/06/17 08:08:20;;;;;;;7.05;5.47;;;;;;;;;;5084218;28;20274;-57
2023/06/17 08:10:46;;;;;;;8.20;5.65;;;;;;;;;;5084645;28;20204;-56
2023/06/17 08:13:12;;;;;;;9.75;6.10;;;;;;;;;;5084429;28;20219;-57
2023/06/17 08:15:40;;;;;;;6.35;5.80;;;;;;;;;;5084480;28;20196;-57
2023/06/17 08:18:06;;;;;;;6.05;5.15;;;;;;;;;;5084212;28;20193;-57
2023/06/17 08:20:32;;;;;;;5.68;5.18;;;;;;;;;;5084535;28;20200;-57
2023/06/17 08:22:58;;;;;;;8.05;5.25;;;;;;;;;;5084400;28;20196;-57
2023/06/17 08:25:25;;;;;;;6.35;5.72;;;;;;;;;;5084343;28;20426;-57
2023/06/17 08:27:51;;;;;;;7.43;5.47;;;;;;;;;;5083913;28;20615;-57
2023/06/17 08:30:17;;;;;;;6.72;5.45;;;;;;;;;;5083765;28;20204;-57
2023/06/17 08:32:45;;;;;;;7.03;5.43;;;;;;;;;;5084059;28;20527;-56
2023/06/17 08:35:11;;;;;;;5.82;5.32;;;;;;;;;;5084129;28;20208;-58
2023/06/17 08:37:37;;;;;;;5.25;4.90;;;;;;;;;;5083831;28;20196;-58
2023/06/17 08:40:05;;;;;;;6.40;5.43;;;;;;;;;;5084004;28;20196;-58
2023/06/17 08:42:32;;;;;;;6.88;5.03;;;;;;;;;;5083861;28;20203;-58
2023/06/17 08:44:59;;;;;;;9.15;5.03;;;;;;;;;;5083750;28;20200;-58
2023/06/17 08:47:26;;;;;;;8.00;5.22;;;;;;;;;;5083455;28;20259;-58
2023/06/17 08:49:54;;;;;;;5.45;5.05;;;;;;;;;;5083992;28;20196;-58
2023/06/17 08:52:21;;;;;;;5.53;5.00;;;;;;;;;;5083922;28;20223;-57
2023/06/17 08:54:47;;;;;;;11.13;5.07;;;;;;;;;;5083627;28;20204;-58
2023/06/17 08:57:14;;;;;;;8.38;4.70;;;;;;;;;;5083622;28;20545;-57
2023/06/17 08:59:40;;;;;;;5.63;5.15;;;;;;;;;;5083340;28;20211;-58
2023/06/17 09:02:07;;;;;;;8.27;5.53;;;;;;;;;;5083541;28;20195;-58
2023/06/17 09:04:34;;;;;;;6.97;4.80;;;;;;;;;;5083652;28;20419;-58
2023/06/17 09:07:02;;;;;;;5.82;4.32;;;;;;;;;;5083415;28;20242;-58
2023/06/17 09:09:28;;;;;;;5.80;4.78;;;;;;;;;;5083207;28;20256;-57
2023/06/17 09:11:54;;;;;;;5.70;4.43;;;;;;;;;;5083202;28;20257;-57
2023/06/17 09:14:22;;;;;;;4.65;4.25;;;;;;;;;;5083148;28;20208;-57
2023/06/17 09:16:49;;;;;;;6.07;4.10;;;;;;;;;;5083369;28;20196;-58
2023/06/17 09:19:16;;;;;;;4.43;4.05;;;;;;;;;;5083073;28;20237;-58
2023/06/17 09:21:42;;;;;;;4.60;4.20;;;;;;;;;;5083221;28;20371;-58
2023/06/17 09:24:09;;;;;;;4.82;4.43;;;;;;;;;;5083172;28;20557;-58
2023/06/17 09:26:39;;;;;;;4.75;4.35;;;;;;;;;;5083055;28;20203;-58
2023/06/17 09:29:06;;;;;;;6.32;4.30;;;;;;;;;;5082353;28;20232;-58
2023/06/17 09:31:33;;;;;;;4.68;4.38;;;;;;;;;;5082912;28;20388;-58
2023/06/17 09:34:03;;;;;;;6.30;4.47;;;;;;;;;;5082615;28;20207;-58
2023/06/17 09:36:29;;;;;;;4.50;4.10;;;;;;;;;;5082556;28;20203;-58
2023/06/17 09:38:56;;;;;;;8.93;4.60;;;;;;;;;;5082350;28;20218;-58
2023/06/17 09:41:23;;;;;;;7.47;4.70;;;;;;;;;;5081586;28;20226;-58
2023/06/17 09:43:50;;;;;;;4.55;4.15;;;;;;;;;;5082821;28;20207;-58
2023/06/17 09:46:24;;;;;;;5.18;4.78;;;;;;;;;;5082637;28;20494;-57
2023/06/17 09:48:51;;;;;;;6.57;4.15;;;;;;;;;;5082227;28;20466;-58
2023/06/17 09:51:20;;;;;;;7.00;4.70;;;;;;;;;;5082351;28;20195;-57
2023/06/17 09:53:47;;;;;;;5.88;4.00;;;;;;;;;;5082361;28;20202;-58
2023/06/17 09:56:14;;;;;;;12.40;4.40;;;;;;;;;;5082106;28;20211;-58
2023/06/17 09:58:43;;;;;;;5.15;3.80;;;;;;;;;;5082241;28;20500;-59
2023/06/17 10:01:09;;;;;;;3.72;3.30;;;;;;;;;;5082251;28;20425;-58
2023/06/17 10:03:37;;;;;;;4.05;3.80;;;;;;;;;;5082082;28;20427;-58
2023/06/17 10:06:04;;;;;;;5.05;4.13;;;;;;;;;;5081933;28;20196;-58
2023/06/17 10:08:30;;;;;;;5.07;3.85;;;;;;;;;;5081982;28;20241;-58
2023/06/17 10:10:58;;;;;;;9.30;3.70;;;;;;;;;;5082139;28;20212;-59
2023/06/17 10:13:26;;;;;;;4.47;4.10;;;;;;;;;;5082191;28;20199;-58
2023/06/17 10:15:54;;;;;;;5.05;4.15;;;;;;;;;;5082239;28;20422;-58
2023/06/17 10:18:22;;;;;;;6.57;3.97;;;;;;;;;;5081815;28;20317;-58
2023/06/17 10:20:49;;;;;;;4.72;4.00;;;;;;;;;;5081793;28;20495;-59
2023/06/17 10:23:16;;;;;;;5.38;3.60;;;;;;;;;;5081941;28;20204;-58
2023/06/17 10:25:42;;;;;;;5.05;3.72;;;;;;;;;;5082081;28;20224;-58
2023/06/17 10:28:09;;;;;;;9.60;3.88;;;;;;;;;;5081696;28;20404;-58
2023/06/17 10:30:37;;;;;;;5.07;3.70;;;;;;;;;;5081746;28;20196;-58
2023/06/17 10:33:05;;;;;;;4.25;3.92;;;;;;;;;;5081906;28;20231;-58
2023/06/17 10:35:38;;;;;;;5.50;4.60;;;;;;;;;;5081669;28;20207;-58
2023/06/17 10:38:04;;;;;;;4.63;4.22;;;;;;;;;;5081774;28;20498;-58
2023/06/17 10:40:35;;;;;;;6.63;4.35;;;;;;;;;;5081714;28;20196;-59
2023/06/17 10:43:18;;;;;;;10.23;4.18;;;;;;;;;;5081914;28;20196;-57
2023/06/17 10:45:49;;;;;;;5.72;4.30;;;;;;;;;;5081626;28;20196;-59
2023/06/17 10:48:17;;;;;;;8.70;4.22;;;;;;;;;;5081415;28;20257;-59
2023/06/17 10:50:43;;;;;;;5.40;4.40;;;;;;;;;;5081887;28;20196;-58
2023/06/17 10:53:10;;;;;;;4.25;3.78;;;;;;;;;;5084217;28;20200;-57
2023/06/17 10:55:36;;;;;;;4.45;4.25;;;;;;;;;;5085461;28;20200;-58
2023/06/17 10:58:02;;;;;;;7.45;5.63;;;;;;;;;;5085035;28;20202;-58
2023/06/17 11:00:28;;;;;;;4.95;3.90;;;;;;;;;;5085279;28;20196;-58
2023/06/17 11:02:55;;;;;;;6.10;4.47;;;;;;;;;;5085469;28;20203;-59
2023/06/17 11:05:22;;;;;;;4.38;4.00;;;;;;;;;;5085398;28;20195;-58
2023/06/17 11:07:48;;;;;;;4.85;4.07;;;;;;;;;;5085209;28;20277;-58
2023/06/17 11:10:15;;;;;;;4.35;3.95;;;;;;;;;;5085334;28;20246;-59
2023/06/17 11:12:45;;;;;;;4.30;4.00;;;;;;;;;;5085335;28;20195;-59
2023/06/17 11:15:12;;;;;;;4.35;4.05;;;;;;;;;;5085276;28;20559;-58
2023/06/17 11:17:38;;;;;;;5.47;3.90;;;;;;;;;;5085193;28;20200;-59
2023/06/17 11:20:06;;;;;;;4.28;3.97;;;;;;;;;;5085055;28;20196;-58
2023/06/17 11:22:38;;;;;;;4.68;4.05;;;;;;;;;;5085107;28;20203;-75
2023/06/17 11:25:04;;;;;;;4.00;3.70;;;;;;;;;;5085135;28;20538;-75
2023/06/17 11:27:31;;;;;;;4.05;3.80;;;;;;;;;;5084659;28;20224;-75
2023/06/17 11:29:57;;;;;;;5.55;3.78;;;;;;;;;;5084895;28;20534;-75
2023/06/17 11:32:24;;;;;;;4.50;3.92;;;;;;;;;;5085191;28;20196;-75
2023/06/17 11:34:51;;;;;;;6.88;4.10;;;;;;;;;;5085153;28;20203;-75
2023/06/17 11:37:18;;;;;;;5.03;3.80;;;;;;;;;;5085145;28;20233;-76
2023/06/17 11:39:45;;;;;;;3.90;3.53;;;;;;;;;;5084774;28;20198;-76
2023/06/17 11:42:12;;;;;;;5.03;4.30;;;;;;;;;;5084739;28;20241;-76
2023/06/17 11:44:38;;;;;;;4.60;4.18;;;;;;;;;;5085155;28;20208;-75
2023/06/17 11:47:05;;;;;;;5.07;3.95;;;;;;;;;;5085210;28;20200;-76
2023/06/17 11:49:31;;;;;;;5.05;4.50;;;;;;;;;;5085000;28;20219;-75
2023/06/17 11:52:00;;;;;;;4.60;4.25;;;;;;;;;;5085241;28;20196;-76
2023/06/17 11:54:27;;;;;;;5.85;3.85;;;;;;;;;;5085042;28;20374;-75
2023/06/17 11:56:54;;;;;;;5.53;4.57;;;;;;;;;;5077974;28;20503;-75
2023/06/17 11:59:21;;;;;;;3.97;3.53;;;;;;;;;;5075071;28;20207;-75
2023/06/17 12:01:47;;;;;;;4.18;3.83;;;;;;;;;;5075698;28;20525;-75
2023/06/17 12:04:13;;;;;;;7.03;4.00;;;;;;;;;;5078785;28;20246;-76
2023/06/17 12:06:41;;;;;;;4.05;3.70;;;;;;;;;;5081003;28;20203;-76
2023/06/17 12:09:08;;;;;;;3.70;3.40;;;;;;;;;;5082096;28;20476;-75
2023/06/17 12:11:38;;;;;;;4.57;4.30;;;;;;;;;;5082272;28;20200;-76
2023/06/17 12:14:08;;;;;;;6.90;4.22;;;;;;;;;;5082578;28;20254;-75
2023/06/17 12:16:35;;;;;;;7.50;4.63;;;;;;;;;;5082515;28;20211;-75
2023/06/17 12:19:03;;;;;;;4.28;3.97;;;;;;;;;;5082259;28;20210;-75
2023/06/17 12:21:29;;;;;;;5.95;4.60;;;;;;;;;;5082546;28;20510;-74
2023/06/17 12:23:56;;;;;;;4.25;3.95;;;;;;;;;;5082121;28;20208;-75
2023/06/17 12:26:23;;;;;;;4.97;3.85;;;;;;;;;;5082580;28;20210;-75
2023/06/17 12:28:50;;;;;;;4.40;4.03;;;;;;;;;;5081897;28;20238;-75
2023/06/17 12:31:17;;;;;;;4.22;3.83;;;;;;;;;;5082262;28;20196;-75
2023/06/17 12:33:44;;;;;;;5.93;3.97;;;;;;;;;;5082271;28;20219;-76
2023/06/17 12:36:10;;;;;;;4.60;4.20;;;;;;;;;;5082196;28;20230;-75
2023/06/17 12:38:37;;;;;;;4.22;3.95;;;;;;;;;;5082022;28;20545;-76
2023/06/17 12:41:04;;;;;;;5.18;4.22;;;;;;;;;;5082129;28;20212;-76
2023/06/17 12:43:30;;;;;;;4.50;4.20;;;;;;;;;;5081971;28;20271;-76
2023/06/17 12:45:58;;;;;;;6.25;4.18;;;;;;;;;;5081548;28;20215;-75
2023/06/17 12:48:26;;;;;;;5.18;3.92;;;;;;;;;;5081775;28;20224;-76
2023/06/17 12:50:52;;;;;;;3.75;3.53;;;;;;;;;;5081973;28;20208;-75
2023/06/17 12:53:18;;;;;;;4.13;3.78;;;;;;;;;;5082105;28;20518;-75
2023/06/17 12:55:44;;;;;;;4.38;3.78;;;;;;;;;;5084097;28;20496;-77
2023/06/17 12:58:11;;;;;;;4.10;3.80;;;;;;;;;;5064719;28;20426;-76
2023/06/17 13:00:38;;;;;;;3.85;3.45;;;;;;;;;;5063393;28;20271;-77
2023/06/17 13:03:04;;;;;;;4.25;3.70;;;;;;;;;;5063344;28;20242;-76
2023/06/17 13:05:31;;;;;;;7.47;3.75;;;;;;;;;;5063761;28;20223;-76
2023/06/17 13:07:58;;;;;;;3.95;3.60;;;;;;;;;;5063509;28;20212;-76
2023/06/17 13:10:26;;;;;;;5.70;4.18;;;;;;;;;;5063929;28;20383;-77
2023/06/17 13:12:53;;;;;;;4.40;4.00;;;;;;;;;;5063973;28;20260;-76
2023/06/17 13:15:19;;;;;;;4.30;3.35;;;;;;;;;;5063555;28;20271;-76
2023/06/17 13:17:45;;;;;;;3.90;3.70;;;;;;;;;;5063639;28;20201;-76
2023/06/17 13:20:12;;;;;;;4.32;4.00;;;;;;;;;;5063638;28;20197;-75
2023/06/17 13:22:40;;;;;;;4.32;3.85;;;;;;;;;;5064139;28;20200;-77
2023/06/17 13:25:06;;;;;;;3.95;3.50;;;;;;;;;;5063648;28;20231;-77
2023/06/17 13:27:33;;;;;;;4.32;3.67;;;;;;;;;;5063464;28;20216;-75
2023/06/17 13:29:59;;;;;;;7.30;3.95;;;;;;;;;;5064121;28;20228;-76
2023/06/17 13:32:26;;;;;;;3.67;3.40;;;;;;;;;;5063468;28;20197;-77
2023/06/17 13:34:53;;;;;;;4.10;3.90;;;;;;;;;;5063121;28;20203;-76
2023/06/17 13:37:19;;;;;;;3.83;3.65;;;;;;;;;;5063319;28;20196;-76
2023/06/17 13:39:47;;;;;;;4.63;3.60;;;;;;;;;;5062975;28;20201;-75
2023/06/17 13:42:13;;;;;;;3.88;3.42;;;;;;;;;;5062710;28;20196;-76
2023/06/17 13:44:39;;;;;;;4.00;3.70;;;;;;;;;;5062759;28;20235;-76
2023/06/17 13:47:06;;;;;;;5.20;3.83;;;;;;;;;;5062742;28;20197;-76
2023/06/17 13:49:33;;;;;;;6.85;3.42;;;;;;;;;;5062451;28;20562;-76
2023/06/17 13:52:00;;;;;;;3.60;3.30;;;;;;;;;;5062813;28;20235;-76
2023/06/17 13:54:27;;;;;;;3.83;3.53;;;;;;;;;;5062741;28;20370;-76
2023/06/17 13:56:54;;;;;;;3.45;3.15;;;;;;;;;;5062536;28;20196;-76
2023/06/17 13:59:21;;;;;;;4.85;3.55;;;;;;;;;;5062380;28;20192;-76
2023/06/17 14:01:48;;;;;;;5.00;3.70;;;;;;;;;;5062523;28;20197;-76
2023/06/17 14:04:14;;;;;;;3.55;3.25;;;;;;;;;;5062620;28;20204;-76
2023/06/17 14:06:41;;;;;;;3.88;3.58;;;;;;;;;;5062575;28;20204;-76
2023/06/17 14:09:07;;;;;;;3.60;3.30;;;;;;;;;;5062048;28;20584;-76
2023/06/17 14:11:35;;;;;;;3.20;3.00;;;;;;;;;;5062502;28;20197;-76
2023/06/17 14:14:03;;;;;;;3.38;3.17;;;;;;;;;;5062489;28;20222;-76
2023/06/17 14:16:29;;;;;;;4.03;3.72;;;;;;;;;;5062677;28;20200;-77
2023/06/17 14:18:55;;;;;;;3.88;3.38;;;;;;;;;;5062514;28;20196;-77
2023/06/17 14:21:23;;;;;;;3.95;3.75;;;;;;;;;;5062260;28;20204;-76
2023/06/17 14:23:59;;;;;;;5.85;3.38;;;;;;;;;;5062420;28;20287;-76
2023/06/17 14:26:25;;;;;;;3.92;3.72;;;;;;;;;;5061810;28;20546;-76
2023/06/17 14:28:51;;;;;;;3.45;3.28;;;;;;;;;;5061662;28;20228;-76
2023/06/17 14:31:19;;;;;;;4.00;3.70;;;;;;;;;;5062431;28;20535;-76
2023/06/17 14:33:45;;;;;;;3.58;3.40;;;;;;;;;;5062495;28;20511;-76
2023/06/17 14:36:11;;;;;;;3.70;3.40;;;;;;;;;;5061972;28;20208;-76
2023/06/17 14:38:37;;;;;;;4.85;3.60;;;;;;;;;;5062029;28;20197;-76
2023/06/17 14:41:04;;;;;;;3.80;3.35;;;;;;;;;;5062497;28;20258;-76